createdAt,value
2022-12-31T00:03:01.014Z,100.00
2022-12-31T00:06:29.569Z,100.00
2022-12-31T00:09:37.000Z,100.00
2022-12-31T00:12:40.649Z,100.00
2022-12-31T00:15:56.624Z,100.00
2022-12-31T00:19:00.976Z,100.00
2022-12-31T00:22:06.767Z,100.00
2022-12-31T00:25:11.672Z,100.00
2022-12-31T00:28:15.294Z,100.00
2022-12-31T00:31:25.683Z,100.00
2022-12-31T00:34:31.451Z,100.00
2022-12-31T00:37:39.212Z,100.00
2022-12-31T00:40:52.890Z,100.00
2022-12-31T00:43:58.765Z,100.00
2022-12-31T00:47:02.550Z,100.00
2022-12-31T00:50:09.153Z,100.00
2022-12-31T00:53:12.305Z,100.00
2022-12-31T00:56:21.558Z,100.00
2022-12-31T00:59:25.652Z,100.00
2022-12-31T01:02:29.839Z,100.00
2022-12-31T01:05:35.094Z,100.00
2022-12-31T01:08:41.667Z,100.00
2022-12-31T01:11:45.808Z,100.00
2022-12-31T01:14:50.543Z,100.00
2022-12-31T01:17:54.387Z,100.00
2022-12-31T01:21:04.769Z,100.00
2022-12-31T01:24:10.988Z,100.00
2022-12-31T01:27:16.562Z,100.00
2022-12-31T01:30:23.280Z,100.00
2022-12-31T01:33:28.499Z,100.00
2022-12-31T01:36:34.853Z,100.00
2022-12-31T01:39:38.785Z,100.00
2022-12-31T01:42:43.998Z,100.00
2022-12-31T01:45:54.754Z,100.00
2022-12-31T01:49:27.204Z,100.00
2022-12-31T01:52:47.766Z,100.00
2022-12-31T01:56:03.204Z,100.00
2022-12-31T01:59:34.898Z,100.00
2022-12-31T02:02:40.039Z,100.00
2022-12-31T02:05:56.909Z,100.00
2022-12-31T02:09:29.780Z,100.00
2022-12-31T02:12:34.777Z,100.00
2022-12-31T02:15:57.164Z,100.00
2022-12-31T02:19:59.561Z,100.00
2022-12-31T02:23:32.923Z,100.00
2022-12-31T02:27:45.643Z,100.00
2022-12-31T02:30:55.552Z,100.00
2022-12-31T02:34:08.666Z,100.00
2022-12-31T02:37:34.054Z,100.00
2022-12-31T02:40:38.914Z,100.00
2022-12-31T02:44:02.516Z,100.00
2022-12-31T02:47:32.935Z,100.00
2022-12-31T02:50:58.218Z,100.00
2022-12-31T02:55:18.458Z,100.00
2022-12-31T02:59:00.775Z,100.00
2022-12-31T03:02:21.773Z,100.00
2022-12-31T03:05:51.468Z,100.00
2022-12-31T03:09:44.598Z,100.00
2022-12-31T03:13:29.899Z,100.00
2022-12-31T03:16:35.754Z,100.00
2022-12-31T03:20:00.754Z,100.00
2022-12-31T03:23:06.987Z,100.00
2022-12-31T03:26:13.607Z,100.00
2022-12-31T03:29:16.951Z,100.00
2022-12-31T03:32:44.604Z,100.00
2022-12-31T03:35:49.076Z,100.00
2022-12-31T03:38:56.035Z,100.00
2022-12-31T03:42:08.591Z,100.00
2022-12-31T03:46:01.748Z,100.00
2022-12-31T03:49:09.835Z,100.00
2022-12-31T03:52:17.513Z,100.00
2022-12-31T03:55:32.655Z,100.00
2022-12-31T03:58:47.602Z,100.00
2022-12-31T04:01:59.006Z,100.00
2022-12-31T04:05:25.627Z,100.00
2022-12-31T04:08:33.561Z,100.00
2022-12-31T04:11:41.929Z,100.00
2022-12-31T04:14:47.370Z,100.00
2022-12-31T04:17:51.706Z,100.00
2022-12-31T04:20:55.509Z,100.00
2022-12-31T04:24:01.903Z,100.00
2022-12-31T04:27:08.019Z,100.00
2022-12-31T04:30:16.947Z,100.00
2022-12-31T04:33:20.844Z,100.00
2022-12-31T04:36:44.730Z,100.00
2022-12-31T04:39:47.965Z,100.00
2022-12-31T04:42:51.573Z,100.00
2022-12-31T04:45:54.835Z,100.00
2022-12-31T04:48:59.498Z,100.00
2022-12-31T04:52:02.727Z,100.00
2022-12-31T04:55:06.943Z,100.00
2022-12-31T04:58:14.237Z,100.00
2022-12-31T05:01:20.228Z,100.00
2022-12-31T05:04:34.328Z,100.00
2022-12-31T05:07:58.847Z,100.00
2022-12-31T05:11:04.556Z,100.00
2022-12-31T05:14:28.690Z,100.00
2022-12-31T05:17:44.888Z,100.00
2022-12-31T05:21:22.156Z,100.00
2022-12-31T05:24:51.943Z,100.00
2022-12-31T05:27:58.964Z,100.00
2022-12-31T05:31:14.922Z,100.00
2022-12-31T05:34:45.624Z,100.00
2022-12-31T05:38:31.581Z,100.00
2022-12-31T05:41:36.276Z,100.00
2022-12-31T05:45:08.210Z,100.00
2022-12-31T05:48:30.065Z,100.00
2022-12-31T05:51:56.138Z,100.00
2022-12-31T05:55:00.180Z,100.00
2022-12-31T06:01:35.987Z,100.00
2022-12-31T06:04:42.764Z,100.00
2022-12-31T06:07:50.209Z,100.00
2022-12-31T06:11:14.361Z,100.00
2022-12-31T06:14:21.181Z,100.00
2022-12-31T06:17:27.873Z,100.00
2022-12-31T06:20:38.497Z,100.00
2022-12-31T06:24:22.120Z,100.00
2022-12-31T06:27:25.428Z,100.00
2022-12-31T06:30:28.613Z,100.00
2022-12-31T06:33:31.929Z,100.00
2022-12-31T06:36:35.626Z,100.00
2022-12-31T06:39:42.531Z,100.00
2022-12-31T06:42:46.475Z,100.00
2022-12-31T06:45:49.869Z,100.00
2022-12-31T06:48:55.631Z,100.00
2022-12-31T06:52:04.405Z,100.00
2022-12-31T06:55:27.495Z,100.00
2022-12-31T06:58:30.590Z,100.00
2022-12-31T07:01:46.080Z,100.00
2022-12-31T07:05:30.716Z,100.00
2022-12-31T07:08:54.521Z,100.00
2022-12-31T07:12:44.914Z,100.00
2022-12-31T07:16:02.669Z,100.00
2022-12-31T07:19:32.214Z,100.00
2022-12-31T07:23:30.451Z,100.00
2022-12-31T07:27:54.624Z,100.00
2022-12-31T07:31:49.437Z,100.00
2022-12-31T07:35:00.366Z,100.00
2022-12-31T07:38:25.245Z,100.00
2022-12-31T07:42:01.309Z,100.00
2022-12-31T07:45:21.314Z,100.00
2022-12-31T07:48:30.410Z,100.00
2022-12-31T07:51:38.146Z,100.00
2022-12-31T07:54:53.856Z,100.00
2022-12-31T07:58:47.345Z,100.00
2022-12-31T08:02:03.689Z,100.00
2022-12-31T08:05:27.671Z,100.00
2022-12-31T08:09:11.827Z,100.00
2022-12-31T08:13:43.022Z,100.00
2022-12-31T08:39:02.592Z,100.00
2022-12-31T08:48:30.034Z,100.00
2022-12-31T08:52:09.205Z,100.00
2022-12-31T08:57:27.926Z,100.00
2022-12-31T09:36:38.002Z,100.00
2022-12-31T09:40:59.618Z,100.00
2022-12-31T09:50:11.605Z,100.00
2022-12-31T09:54:15.356Z,100.00
2022-12-31T09:58:46.944Z,100.00
2022-12-31T10:02:25.682Z,100.00
2022-12-31T10:06:03.729Z,100.00
2022-12-31T10:19:27.917Z,99.48
2022-12-31T10:22:51.554Z,100.00
2022-12-31T10:26:42.274Z,100.00
2022-12-31T10:29:59.737Z,100.00
2022-12-31T10:33:21.721Z,100.00
2022-12-31T10:37:26.284Z,98.44
2022-12-31T10:41:05.888Z,100.00
2022-12-31T10:45:05.249Z,100.00
2022-12-31T10:49:39.846Z,97.88
2022-12-31T10:54:13.591Z,99.00
2022-12-31T10:58:50.646Z,97.02
2022-12-31T11:02:34.514Z,100.00
2022-12-31T11:06:13.701Z,100.00
2022-12-31T11:10:14.415Z,100.00
2022-12-31T11:14:11.355Z,100.00
2022-12-31T11:17:38.027Z,100.00
2022-12-31T11:21:51.890Z,100.00
2022-12-31T11:25:08.642Z,100.00
2022-12-31T11:28:34.409Z,100.00
2022-12-31T11:32:16.141Z,100.00
2022-12-31T11:35:45.650Z,100.00
2022-12-31T11:39:32.189Z,100.00
2022-12-31T11:43:15.171Z,100.00
2022-12-31T11:47:04.568Z,100.00
2022-12-31T11:50:13.476Z,100.00
2022-12-31T11:53:16.900Z,100.00
2022-12-31T11:56:34.201Z,100.00
2022-12-31T12:00:01.689Z,100.00
2022-12-31T12:03:18.935Z,100.00
2022-12-31T12:06:46.405Z,100.00
2022-12-31T12:09:51.754Z,100.00
2022-12-31T12:13:03.707Z,100.00
2022-12-31T12:16:09.422Z,100.00
2022-12-31T12:19:19.365Z,100.00
2022-12-31T12:22:36.827Z,99.78
2022-12-31T12:26:52.319Z,99.77
2022-12-31T12:30:24.556Z,100.00
2022-12-31T12:34:00.475Z,100.00
2022-12-31T12:37:34.724Z,100.00
2022-12-31T12:41:10.580Z,100.00
2022-12-31T12:44:19.713Z,98.65
2022-12-31T12:47:28.946Z,97.58
2022-12-31T12:50:42.425Z,97.83
2022-12-31T12:54:46.228Z,96.77
2022-12-31T13:04:23.797Z,97.83
2022-12-31T13:20:22.193Z,97.79
2022-12-31T13:25:03.588Z,97.16
2022-12-31T13:28:49.196Z,96.46
2022-12-31T13:32:40.210Z,96.41
2022-12-31T13:35:54.129Z,96.59
2022-12-31T13:39:02.358Z,97.86
2022-12-31T13:42:27.597Z,95.86
2022-12-31T13:45:38.889Z,95.98
2022-12-31T13:48:53.584Z,97.58
2022-12-31T13:52:27.410Z,96.55
2022-12-31T13:55:36.749Z,97.47
2022-12-31T13:58:57.955Z,99.89
2022-12-31T14:02:35.546Z,98.79
2022-12-31T14:05:52.728Z,100.00
2022-12-31T14:08:57.848Z,100.00
2022-12-31T14:12:31.133Z,100.00
2022-12-31T14:15:52.757Z,100.00
2022-12-31T14:19:07.398Z,100.00
2022-12-31T14:22:18.949Z,100.00
2022-12-31T14:26:23.852Z,100.00
2022-12-31T14:29:50.353Z,100.00
2022-12-31T14:33:43.671Z,100.00
2022-12-31T14:37:17.215Z,100.00
2022-12-31T14:41:23.962Z,100.00
2022-12-31T14:44:54.326Z,100.00
2022-12-31T14:48:09.595Z,100.00
2022-12-31T14:51:15.064Z,100.00
2022-12-31T14:55:24.487Z,100.00
2022-12-31T14:58:54.071Z,100.00
2022-12-31T15:02:33.769Z,100.00
2022-12-31T15:05:53.251Z,100.00
2022-12-31T15:09:17.911Z,100.00
2022-12-31T15:12:29.028Z,100.00
2022-12-31T15:15:43.052Z,100.00
2022-12-31T15:19:11.999Z,100.00
2022-12-31T15:22:37.652Z,100.00
2022-12-31T15:25:48.385Z,100.00
2022-12-31T15:29:51.294Z,100.00
2022-12-31T15:33:27.211Z,100.00
2022-12-31T15:36:34.611Z,100.00
2022-12-31T15:39:44.566Z,100.00
2022-12-31T15:42:58.341Z,100.00
2022-12-31T15:46:06.079Z,100.00
2022-12-31T15:49:23.854Z,100.00
2022-12-31T15:53:02.464Z,100.00
2022-12-31T15:56:49.011Z,100.00
2022-12-31T16:00:24.983Z,100.00
2022-12-31T16:03:36.734Z,100.00
2022-12-31T16:06:46.074Z,100.00
2022-12-31T16:10:50.372Z,100.00
2022-12-31T16:14:00.732Z,100.00
2022-12-31T16:17:38.633Z,100.00
2022-12-31T16:20:50.772Z,100.00
2022-12-31T16:24:35.219Z,100.00
2022-12-31T16:28:01.746Z,100.00
2022-12-31T16:31:29.199Z,100.00
2022-12-31T16:34:38.324Z,100.00
2022-12-31T16:37:42.751Z,100.00
2022-12-31T16:41:03.881Z,100.00
2022-12-31T16:44:24.873Z,100.00
2022-12-31T16:47:40.662Z,100.00
2022-12-31T16:50:49.687Z,100.00
2022-12-31T16:53:53.109Z,100.00
2022-12-31T16:56:59.003Z,100.00
2022-12-31T17:00:07.289Z,100.00
2022-12-31T17:03:16.785Z,100.00
2022-12-31T17:06:21.263Z,100.00
2022-12-31T17:09:37.284Z,100.00
2022-12-31T17:13:25.546Z,100.00
2022-12-31T17:16:09.015Z,100.00
2022-12-31T17:19:42.042Z,100.00
2022-12-31T17:22:46.020Z,100.00
2022-12-31T17:25:49.427Z,100.00
2022-12-31T17:28:54.445Z,100.00
2022-12-31T17:32:07.670Z,100.00
2022-12-31T17:35:43.856Z,100.00
2022-12-31T17:38:47.841Z,100.00
2022-12-31T17:41:58.508Z,100.00
2022-12-31T17:45:16.323Z,100.00
2022-12-31T17:48:23.401Z,100.00
2022-12-31T17:51:29.568Z,100.00
2022-12-31T17:54:32.920Z,100.00
2022-12-31T17:57:36.436Z,100.00
2022-12-31T18:00:39.886Z,100.00
2022-12-31T18:03:44.457Z,100.00
2022-12-31T18:06:47.175Z,100.00
2022-12-31T18:09:53.793Z,100.00
2022-12-31T18:12:59.228Z,100.00
2022-12-31T18:16:02.441Z,100.00
2022-12-31T18:19:23.531Z,100.00
2022-12-31T18:22:38.063Z,100.00
2022-12-31T18:28:43.794Z,100.00
2022-12-31T18:31:49.489Z,100.00
2022-12-31T18:34:53.237Z,100.00
2022-12-31T18:38:00.296Z,100.00
2022-12-31T18:41:19.779Z,100.00
2022-12-31T18:44:27.531Z,100.00
2022-12-31T18:47:37.299Z,100.00
2022-12-31T18:50:44.402Z,100.00
2022-12-31T18:53:48.515Z,100.00
2022-12-31T18:56:57.072Z,100.00
2022-12-31T19:00:00.788Z,100.00
2022-12-31T19:03:06.367Z,100.00
2022-12-31T19:06:10.333Z,100.00
2022-12-31T19:09:43.504Z,100.00
2022-12-31T19:12:37.696Z,100.00
2022-12-31T19:15:50.901Z,100.00
2022-12-31T19:18:54.846Z,100.00
2022-12-31T19:21:58.035Z,100.00
2022-12-31T19:25:02.565Z,100.00
2022-12-31T19:28:13.368Z,100.00
2022-12-31T19:31:18.993Z,100.00
2022-12-31T19:34:26.007Z,100.00
2022-12-31T19:37:30.560Z,100.00
2022-12-31T19:40:38.054Z,100.00
2022-12-31T19:43:43.793Z,100.00
2022-12-31T19:46:47.191Z,100.00
2022-12-31T19:49:50.974Z,100.00
2022-12-31T19:52:57.510Z,100.00
2022-12-31T19:56:03.023Z,100.00
2022-12-31T19:59:07.847Z,100.00
2022-12-31T20:02:31.200Z,100.00
2022-12-31T20:05:38.801Z,100.00
2022-12-31T20:08:44.714Z,100.00
2022-12-31T20:12:07.891Z,100.00
2022-12-31T20:15:11.601Z,100.00
2022-12-31T20:18:20.971Z,100.00
2022-12-31T20:21:28.942Z,100.00
2022-12-31T20:24:34.285Z,100.00
2022-12-31T20:27:39.743Z,100.00
2022-12-31T20:30:45.989Z,100.00
2022-12-31T20:33:49.999Z,100.00
2022-12-31T20:36:56.227Z,100.00
2022-12-31T20:40:00.851Z,100.00
2022-12-31T20:43:06.888Z,100.00
2022-12-31T20:50:10.178Z,100.00
2022-12-31T20:53:11.593Z,100.00
2022-12-31T20:56:16.535Z,100.00
2022-12-31T20:59:26.319Z,100.00
2022-12-31T21:02:42.162Z,100.00
2022-12-31T21:05:53.473Z,100.00
2022-12-31T21:08:59.495Z,100.00
2022-12-31T21:12:28.799Z,100.00
2022-12-31T21:15:32.267Z,100.00
2022-12-31T21:18:35.341Z,100.00
2022-12-31T21:21:50.990Z,100.00
2022-12-31T21:24:54.127Z,100.00
2022-12-31T21:27:58.004Z,100.00
2022-12-31T21:31:06.395Z,100.00
2022-12-31T21:34:15.857Z,100.00
2022-12-31T21:37:19.723Z,100.00
2022-12-31T21:40:27.269Z,100.00
2022-12-31T21:43:35.950Z,100.00
2022-12-31T21:46:54.614Z,100.00
2022-12-31T21:50:16.063Z,100.00
2022-12-31T21:53:36.621Z,100.00
2022-12-31T21:56:44.776Z,100.00
2022-12-31T22:00:40.435Z,100.00
2022-12-31T22:03:43.414Z,100.00
2022-12-31T22:06:56.879Z,100.00
2022-12-31T22:10:03.391Z,100.00
2022-12-31T22:13:10.637Z,100.00
2022-12-31T22:16:20.431Z,100.00
2022-12-31T22:19:23.379Z,100.00
2022-12-31T22:22:26.823Z,100.00
2022-12-31T22:25:39.626Z,100.00
2022-12-31T22:28:44.361Z,100.00
2022-12-31T22:31:49.969Z,100.00
2022-12-31T22:34:53.088Z,100.00
2022-12-31T22:38:03.279Z,100.00
2022-12-31T22:41:21.445Z,100.00
2022-12-31T22:44:30.799Z,100.00
2022-12-31T22:47:33.824Z,100.00
2022-12-31T22:50:38.269Z,100.00
2022-12-31T22:53:43.684Z,100.00
2022-12-31T22:56:48.927Z,100.00
2022-12-31T23:00:02.554Z,100.00
2022-12-31T23:03:12.409Z,100.00
2022-12-31T23:06:43.953Z,100.00
2022-12-31T23:10:06.249Z,100.00
2022-12-31T23:13:28.726Z,100.00
2022-12-31T23:16:50.318Z,100.00
2022-12-31T23:20:15.733Z,100.00
2022-12-31T23:23:21.528Z,100.00
2022-12-31T23:26:24.598Z,100.00
2022-12-31T23:29:30.170Z,100.00
2022-12-31T23:32:33.823Z,100.00
2022-12-31T23:35:38.069Z,100.00
2022-12-31T23:38:53.936Z,100.00
2022-12-31T23:42:00.933Z,100.00
2022-12-31T23:45:04.530Z,100.00
2022-12-31T23:48:07.885Z,100.00
2022-12-31T23:51:11.506Z,100.00
2022-12-31T23:54:18.401Z,100.00
2022-12-31T23:57:22.980Z,100.00
